aviador You're here:

KPRO Decoded Metar

PERRY MUNI in IA, USA
Report Time2017-04-25 06:35:00
UTC Time2017-04-25 06:37:47
Flight Rules vfr VFR
Wind160° at 08 kt
W.Decomp.*RWY 14: 7.6 kt HW 2.5 kt RCW
RWY 22: 3.8 kt HW 7.1 kt LCW
W.Rank160° ranks 2
Current wind is below 160° avg. (8.1)
Visibility9999 m
Phenomena:N/A
Clouds:Scattered 075 Hf
Overcast 090 Hf
Expected CloudBase > 4,800 ft AGL from Temp-Dew spread
Ceiling9,000 ft
Temp15°C (ISA +2)
Dew Point03°C (45% RH)
AAT10.6°C
QNH1000 hPa
Density Alt1,795 ft
Elevation1,010 ft
Report Wrong Elevation
Raw Report
METAR KPRO 250635Z AUTO 16008KT 10SM SCT075 OVC090 15/03 A2954 RMK
AO2 T01500029=

Extra information for KPRO:More info

Metar Taf Metar & Taf Last 4 Metars F.Rules Stats Wind Profile Meteogram Temp Stats Airport Information Weather charts Add Link Nearby VenuesMetar ALERT Operation Metar Decoded Social comments

AIRNAV info for KPRO